Time;durP1;ratioP1;P1;durP2;ratioP2;P2;SDS_P1;SDS_P2;PMS_P1;PMS_P2;Temp;Humidity;BMP_temperature;BMP_pressure;BME280_temperature;BME280_humidity;BME280_pressure;Samples;Min_cycle;Max_cycle;Signal;HPM_P1;HPM_P2
2021/08/30 00:00:31;;;;;;;18.75;15.80;;;;;;;;;;2080872;28;20605;-51
2021/08/30 00:01:32;;;;;;;19.17;15.48;;;;;;;;;;2064719;28;20169;-52
2021/08/30 00:02:32;;;;;;;19.98;16.15;;;;;;;;;;2064971;28;20174;-51
2021/08/30 00:03:32;;;;;;;18.13;15.32;;;;;;;;;;2073601;28;20192;-52
2021/08/30 00:04:32;;;;;;;18.08;15.77;;;;;;;;;;2077450;28;20177;-48
2021/08/30 00:05:33;;;;;;;21.85;16.58;;;;;;;;;;2080872;28;20164;-50
2021/08/30 00:06:33;;;;;;;17.73;15.88;;;;;;;;;;2081224;28;20254;-50
2021/08/30 00:07:33;;;;;;;17.88;15.98;;;;;;;;;;2081499;28;20176;-55
2021/08/30 00:08:33;;;;;;;19.02;16.23;;;;;;;;;;2080869;28;20219;-52
2021/08/30 00:09:34;;;;;;;18.67;16.33;;;;;;;;;;2081695;28;20370;-51
2021/08/30 00:10:34;;;;;;;18.58;16.65;;;;;;;;;;2081038;28;20194;-49
2021/08/30 00:11:34;;;;;;;19.52;15.60;;;;;;;;;;2081473;28;20254;-52
2021/08/30 00:12:40;;;;;;;18.13;16.23;;;;;;;;;;2081525;28;20179;-49
2021/08/30 00:13:40;;;;;;;23.92;15.85;;;;;;;;;;2081617;28;20156;-50
2021/08/30 00:14:40;;;;;;;20.05;15.93;;;;;;;;;;2081321;28;20160;-53
2021/08/30 00:15:40;;;;;;;22.23;17.17;;;;;;;;;;2081405;28;20176;-51
2021/08/30 00:16:41;;;;;;;20.73;16.15;;;;;;;;;;2081486;28;20219;-49
2021/08/30 00:17:41;;;;;;;18.25;15.90;;;;;;;;;;2081198;28;20192;-53
2021/08/30 00:18:42;;;;;;;18.83;15.82;;;;;;;;;;2072543;28;20173;-54
2021/08/30 00:19:42;;;;;;;19.17;16.23;;;;;;;;;;2073151;28;20165;-54
2021/08/30 00:20:42;;;;;;;18.85;16.73;;;;;;;;;;2079883;28;20255;-50
2021/08/30 00:21:43;;;;;;;17.90;15.77;;;;;;;;;;2073071;28;20176;-52
2021/08/30 00:22:43;;;;;;;19.73;16.23;;;;;;;;;;2080065;28;20180;-55
2021/08/30 00:23:43;;;;;;;18.95;16.90;;;;;;;;;;2081453;28;20172;-50
2021/08/30 00:24:44;;;;;;;19.45;16.98;;;;;;;;;;2075437;28;20630;-55
2021/08/30 00:25:44;;;;;;;18.52;16.52;;;;;;;;;;2080599;28;20175;-53
2021/08/30 00:26:44;;;;;;;18.30;16.40;;;;;;;;;;2078488;28;20192;-51
2021/08/30 00:27:44;;;;;;;18.92;16.25;;;;;;;;;;2072390;28;20204;-52
2021/08/30 00:28:44;;;;;;;19.65;17.55;;;;;;;;;;2072139;28;20172;-54
2021/08/30 00:29:45;;;;;;;19.67;17.08;;;;;;;;;;2080155;28;20179;-53
2021/08/30 00:30:45;;;;;;;18.67;16.67;;;;;;;;;;2080338;28;20168;-54
2021/08/30 00:31:46;;;;;;;19.17;16.67;;;;;;;;;;2076494;28;20184;-50
2021/08/30 00:32:46;;;;;;;18.75;16.42;;;;;;;;;;2075354;28;20219;-57
2021/08/30 00:33:46;;;;;;;19.33;16.63;;;;;;;;;;2079844;28;20172;-53
2021/08/30 00:34:46;;;;;;;18.90;16.50;;;;;;;;;;2072807;28;20224;-52
2021/08/30 00:35:46;;;;;;;20.77;17.80;;;;;;;;;;2072733;28;20176;-54
2021/08/30 00:36:47;;;;;;;18.73;16.77;;;;;;;;;;2078804;28;20196;-51
2021/08/30 00:37:48;;;;;;;21.38;17.70;;;;;;;;;;2076212;28;20256;-50
2021/08/30 00:38:49;;;;;;;19.60;17.35;;;;;;;;;;2080530;28;20180;-50
2021/08/30 00:39:49;;;;;;;20.27;17.38;;;;;;;;;;2081569;28;20176;-51
2021/08/30 00:40:50;;;;;;;18.05;16.13;;;;;;;;;;2080245;28;20226;-51
2021/08/30 00:41:51;;;;;;;19.10;17.10;;;;;;;;;;2080709;28;20176;-51
2021/08/30 00:42:52;;;;;;;21.25;17.42;;;;;;;;;;2079843;28;20173;-51
2021/08/30 00:43:52;;;;;;;19.60;17.42;;;;;;;;;;2081134;28;20164;-50
2021/08/30 00:44:53;;;;;;;19.77;17.67;;;;;;;;;;2081715;28;20233;-53
2021/08/30 00:45:53;;;;;;;20.95;18.75;;;;;;;;;;2080947;28;20162;-53
2021/08/30 00:46:54;;;;;;;21.70;17.50;;;;;;;;;;2078144;28;20676;-53
2021/08/30 00:47:55;;;;;;;23.30;17.77;;;;;;;;;;2080951;28;20175;-54
2021/08/30 00:48:55;;;;;;;19.98;17.98;;;;;;;;;;2078688;28;20582;-55
2021/08/30 00:49:56;;;;;;;20.95;17.88;;;;;;;;;;2081983;28;20169;-55
2021/08/30 00:50:56;;;;;;;20.42;16.90;;;;;;;;;;2079499;28;20185;-54
2021/08/30 00:51:57;;;;;;;21.85;18.23;;;;;;;;;;2081327;28;20176;-51
2021/08/30 00:52:57;;;;;;;22.20;18.10;;;;;;;;;;2076145;28;20192;-53
2021/08/30 00:53:58;;;;;;;21.80;18.65;;;;;;;;;;2076955;28;20183;-51
2021/08/30 00:54:59;;;;;;;20.10;17.90;;;;;;;;;;2081039;28;20212;-52
2021/08/30 00:56:00;;;;;;;22.98;18.40;;;;;;;;;;2080783;28;20182;-55
2021/08/30 00:57:02;;;;;;;19.88;17.42;;;;;;;;;;2080792;28;20606;-53
2021/08/30 00:58:02;;;;;;;18.83;16.73;;;;;;;;;;2079848;28;20176;-54
2021/08/30 00:59:02;;;;;;;22.08;18.08;;;;;;;;;;2081235;28;20179;-49
2021/08/30 01:00:04;;;;;;;21.00;17.90;;;;;;;;;;2077484;28;20665;-52
2021/08/30 01:01:04;;;;;;;22.55;19.42;;;;;;;;;;2076556;28;20197;-52
2021/08/30 01:02:05;;;;;;;22.13;18.13;;;;;;;;;;2081108;28;20181;-54
2021/08/30 01:03:05;;;;;;;20.00;17.20;;;;;;;;;;2080704;28;20170;-51
2021/08/30 01:04:06;;;;;;;21.65;18.35;;;;;;;;;;2077763;28;20172;-51
2021/08/30 01:05:06;;;;;;;24.30;17.90;;;;;;;;;;2071599;28;20173;-52
2021/08/30 01:06:12;;;;;;;20.08;17.55;;;;;;;;;;2068629;28;20252;-53
2021/08/30 01:07:22;;;;;;;20.27;17.58;;;;;;;;;;2076612;28;20169;-56
2021/08/30 01:08:30;;;;;;;21.13;16.92;;;;;;;;;;2071537;28;20244;-49
2021/08/30 01:09:30;;;;;;;18.73;16.73;;;;;;;;;;2065688;28;20212;-46
2021/08/30 01:10:31;;;;;;;19.50;17.55;;;;;;;;;;2073184;28;20181;-51
2021/08/30 01:11:33;;;;;;;21.33;17.83;;;;;;;;;;2064745;28;20200;-52
2021/08/30 01:12:35;;;;;;;20.27;18.17;;;;;;;;;;2065411;28;20650;-54
2021/08/30 01:13:43;;;;;;;20.17;17.92;;;;;;;;;;2080709;28;20187;-56
2021/08/30 01:14:48;;;;;;;20.35;18.08;;;;;;;;;;2077714;28;20232;-53
2021/08/30 01:15:48;;;;;;;21.88;19.45;;;;;;;;;;2081558;28;20180;-54
2021/08/30 01:16:49;;;;;;;21.60;19.02;;;;;;;;;;2077525;28;20192;-52
2021/08/30 01:17:51;;;;;;;20.60;18.45;;;;;;;;;;2081744;28;20250;-52
2021/08/30 01:18:52;;;;;;;20.70;17.63;;;;;;;;;;2078592;28;20659;-52
2021/08/30 01:20:05;;;;;;;21.25;18.58;;;;;;;;;;2080859;28;20175;-51
2021/08/30 01:21:08;;;;;;;21.95;17.45;;;;;;;;;;2080841;28;20233;-55
2021/08/30 01:22:10;;;;;;;20.73;17.25;;;;;;;;;;2069112;28;20170;-51
2021/08/30 01:23:10;;;;;;;21.13;18.58;;;;;;;;;;2070119;28;20986;-52
2021/08/30 01:24:13;;;;;;;19.95;17.75;;;;;;;;;;2078668;28;20184;-51
2021/08/30 01:25:15;;;;;;;26.85;18.90;;;;;;;;;;2081300;28;20223;-53
2021/08/30 01:26:16;;;;;;;19.80;17.58;;;;;;;;;;2081114;28;20172;-56
2021/08/30 01:27:17;;;;;;;24.10;18.23;;;;;;;;;;2081351;28;20182;-52
2021/08/30 01:28:19;;;;;;;19.58;17.48;;;;;;;;;;2078753;28;20160;-55
2021/08/30 01:29:22;;;;;;;24.60;18.13;;;;;;;;;;2078559;28;20183;-53
2021/08/30 01:30:24;;;;;;;19.70;17.45;;;;;;;;;;2080691;28;20544;-51
2021/08/30 01:31:33;;;;;;;21.65;17.00;;;;;;;;;;2080916;28;20215;-53
2021/08/30 01:32:37;;;;;;;20.13;18.02;;;;;;;;;;2081120;28;20617;-55
2021/08/30 01:33:38;;;;;;;21.25;18.65;;;;;;;;;;2077364;28;20204;-55
2021/08/30 01:34:39;;;;;;;22.10;18.23;;;;;;;;;;2080293;28;20168;-49
2021/08/30 01:35:39;;;;;;;20.20;17.45;;;;;;;;;;2080547;28;20238;-51
2021/08/30 01:36:40;;;;;;;20.75;18.13;;;;;;;;;;2079736;28;20731;-51
2021/08/30 01:37:42;;;;;;;22.52;18.30;;;;;;;;;;2078524;28;20212;-53
2021/08/30 01:38:45;;;;;;;22.05;18.23;;;;;;;;;;2080876;28;20768;-54
2021/08/30 01:39:46;;;;;;;21.73;17.60;;;;;;;;;;2075177;28;20228;-54
2021/08/30 01:40:46;;;;;;;21.52;18.10;;;;;;;;;;2075497;28;20169;-48
2021/08/30 01:41:47;;;;;;;21.20;18.85;;;;;;;;;;2077234;28;20679;-52
2021/08/30 01:42:49;;;;;;;21.02;17.75;;;;;;;;;;2074877;28;20220;-50
2021/08/30 01:43:49;;;;;;;21.52;18.98;;;;;;;;;;2075240;28;20188;-53
2021/08/30 01:44:49;;;;;;;21.48;19.15;;;;;;;;;;2079792;28;20180;-52
2021/08/30 01:45:50;;;;;;;24.02;18.95;;;;;;;;;;2075488;28;20230;-52
2021/08/30 01:46:51;;;;;;;22.30;18.42;;;;;;;;;;2076566;28;20215;-51
2021/08/30 01:47:52;;;;;;;20.90;18.52;;;;;;;;;;2075552;28;20255;-55
2021/08/30 01:48:53;;;;;;;23.35;18.85;;;;;;;;;;2077572;28;20184;-53
2021/08/30 01:50:01;;;;;;;23.15;18.40;;;;;;;;;;2075871;28;20263;-53
2021/08/30 01:51:03;;;;;;;21.10;18.33;;;;;;;;;;2077391;28;20168;-51
2021/08/30 01:52:03;;;;;;;20.92;18.73;;;;;;;;;;2077695;28;20181;-57
2021/08/30 01:53:05;;;;;;;21.13;18.77;;;;;;;;;;2076060;28;20641;-54
2021/08/30 01:54:06;;;;;;;23.05;18.13;;;;;;;;;;2081101;28;20175;-52
2021/08/30 01:56:23;;;;;;;21.75;18.60;;;;;;;;;;2079568;28;20242;-51
2021/08/30 01:57:24;;;;;;;21.35;17.67;;;;;;;;;;2080135;28;20222;-54
2021/08/30 02:00:46;;;;;;;22.67;17.88;;;;;;;;;;2077043;28;20192;-55
2021/08/30 02:01:47;;;;;;;24.58;18.27;;;;;;;;;;2071896;28;20279;-54
2021/08/30 02:02:47;;;;;;;27.52;19.60;;;;;;;;;;2071324;28;20667;-54
2021/08/30 02:03:47;;;;;;;26.92;20.70;;;;;;;;;;2080590;28;20195;-54
2021/08/30 02:04:48;;;;;;;25.20;20.33;;;;;;;;;;2079786;28;20168;-55
2021/08/30 02:05:49;;;;;;;22.33;19.88;;;;;;;;;;2080449;28;20208;-57
2021/08/30 02:06:50;;;;;;;22.92;19.10;;;;;;;;;;2071834;28;20231;-56
2021/08/30 02:07:50;;;;;;;21.77;19.48;;;;;;;;;;2074502;28;20537;-54
2021/08/30 02:08:51;;;;;;;22.02;19.17;;;;;;;;;;2079911;28;20184;-55
2021/08/30 02:09:52;;;;;;;23.70;20.15;;;;;;;;;;2080728;28;20257;-54
2021/08/30 02:10:54;;;;;;;23.98;18.85;;;;;;;;;;2080116;28;20176;-55
2021/08/30 02:11:54;;;;;;;20.40;17.95;;;;;;;;;;2077696;28;20231;-53
2021/08/30 02:12:54;;;;;;;23.58;19.85;;;;;;;;;;2077508;28;20639;-51
2021/08/30 02:13:57;;;;;;;24.02;20.50;;;;;;;;;;2080709;28;20180;-56
2021/08/30 02:14:57;;;;;;;23.77;19.65;;;;;;;;;;2076168;28;20167;-53
2021/08/30 02:15:58;;;;;;;20.48;17.83;;;;;;;;;;2075928;28;20176;-50
2021/08/30 02:17:01;;;;;;;21.90;19.70;;;;;;;;;;2075790;28;20184;-58
2021/08/30 02:18:06;;;;;;;21.80;19.42;;;;;;;;;;2080166;28;20168;-54
2021/08/30 02:19:09;;;;;;;26.27;21.20;;;;;;;;;;2080462;28;20239;-59
2021/08/30 02:20:11;;;;;;;24.70;19.83;;;;;;;;;;2080315;28;20247;-53
2021/08/30 02:21:30;;;;;;;25.52;19.58;;;;;;;;;;2080793;28;20559;-56
2021/08/30 02:22:34;;;;;;;22.58;19.40;;;;;;;;;;2073086;28;20720;-50
2021/08/30 02:23:37;;;;;;;22.38;17.90;;;;;;;;;;2072903;28;20252;-55
2021/08/30 02:24:39;;;;;;;23.05;19.80;;;;;;;;;;2076988;28;20192;-53
2021/08/30 02:25:39;;;;;;;23.60;21.02;;;;;;;;;;2071914;28;20173;-53
2021/08/30 02:27:00;;;;;;;24.63;20.77;;;;;;;;;;2071578;28;20200;-55
2021/08/30 02:28:00;;;;;;;29.17;20.95;;;;;;;;;;2079640;28;20591;-56
2021/08/30 02:29:02;;;;;;;23.83;19.88;;;;;;;;;;2076218;28;20259;-55
2021/08/30 02:30:12;;;;;;;24.75;20.23;;;;;;;;;;2076298;28;20176;-51
2021/08/30 02:31:13;;;;;;;24.98;19.52;;;;;;;;;;2077861;28;20869;-52
2021/08/30 02:32:15;;;;;;;26.80;21.15;;;;;;;;;;2069378;28;20180;-54
2021/08/30 02:33:15;;;;;;;22.90;19.60;;;;;;;;;;2069877;28;20188;-56
2021/08/30 02:34:21;;;;;;;22.35;19.02;;;;;;;;;;2078491;28;20207;-56
2021/08/30 02:35:23;;;;;;;22.23;19.95;;;;;;;;;;2076413;28;20227;-51
2021/08/30 02:36:23;;;;;;;22.42;19.88;;;;;;;;;;2075300;28;20276;-55
2021/08/30 02:37:24;;;;;;;22.80;20.15;;;;;;;;;;2079719;28;20699;-55
2021/08/30 02:38:25;;;;;;;25.38;21.10;;;;;;;;;;2074549;28;20187;-51
2021/08/30 02:39:27;;;;;;;27.05;21.33;;;;;;;;;;2079766;28;20179;-55
2021/08/30 02:40:28;;;;;;;26.92;20.75;;;;;;;;;;2080313;28;20211;-55
2021/08/30 02:41:28;;;;;;;25.27;21.00;;;;;;;;;;2081183;28;20196;-53
2021/08/30 02:42:29;;;;;;;23.77;19.60;;;;;;;;;;2071487;28;20181;-53
2021/08/30 02:43:29;;;;;;;23.40;20.33;;;;;;;;;;2071796;28;20164;-55
2021/08/30 02:44:29;;;;;;;25.48;21.05;;;;;;;;;;2080373;28;20238;-53
2021/08/30 02:45:30;;;;;;;25.92;21.33;;;;;;;;;;2080496;28;20169;-51
2021/08/30 02:46:30;;;;;;;24.90;21.08;;;;;;;;;;2080415;28;20246;-55
2021/08/30 02:47:31;;;;;;;26.48;22.10;;;;;;;;;;2080903;28;20200;-45
2021/08/30 02:48:32;;;;;;;25.10;22.35;;;;;;;;;;2073098;28;20177;-52
2021/08/30 02:49:32;;;;;;;27.15;22.02;;;;;;;;;;2080908;28;20172;-55
2021/08/30 02:50:33;;;;;;;27.17;22.08;;;;;;;;;;2080837;28;20160;-50
2021/08/30 02:51:34;;;;;;;27.52;22.38;;;;;;;;;;2077396;28;20643;-51
2021/08/30 02:52:35;;;;;;;26.08;22.13;;;;;;;;;;2079876;28;20188;-56
2021/08/30 02:53:36;;;;;;;26.33;23.02;;;;;;;;;;2075032;28;20652;-49
2021/08/30 02:54:36;;;;;;;31.83;24.27;;;;;;;;;;2081034;28;20182;-52
2021/08/30 02:55:37;;;;;;;28.23;23.73;;;;;;;;;;2068000;28;20267;-52
2021/08/30 02:56:37;;;;;;;28.73;22.83;;;;;;;;;;2071723;28;20208;-55
2021/08/30 02:57:38;;;;;;;26.92;22.50;;;;;;;;;;2080381;28;20226;-52
2021/08/30 02:58:39;;;;;;;28.77;23.42;;;;;;;;;;2080650;28;20171;-52
2021/08/30 02:59:40;;;;;;;27.08;21.88;;;;;;;;;;2076144;28;20169;-50
2021/08/30 03:00:40;;;;;;;27.25;22.75;;;;;;;;;;2081108;28;20242;-52
2021/08/30 03:01:41;;;;;;;27.10;22.48;;;;;;;;;;2077247;28;20227;-55
2021/08/30 03:02:42;;;;;;;26.05;22.45;;;;;;;;;;2079997;28;20172;-50
2021/08/30 03:03:42;;;;;;;29.95;23.40;;;;;;;;;;2080320;28;20645;-51
2021/08/30 03:04:43;;;;;;;30.33;24.15;;;;;;;;;;2081079;28;20214;-55
2021/08/30 03:05:45;;;;;;;28.80;25.33;;;;;;;;;;2071368;28;20289;-55
2021/08/30 03:06:45;;;;;;;25.15;22.13;;;;;;;;;;2073141;28;20193;-53
2021/08/30 03:07:46;;;;;;;27.27;22.75;;;;;;;;;;2082464;28;20184;-50
2021/08/30 03:08:46;;;;;;;28.40;22.83;;;;;;;;;;2079772;28;20177;-51
2021/08/30 03:09:47;;;;;;;28.05;24.67;;;;;;;;;;2076592;28;20276;-49
2021/08/30 03:10:47;;;;;;;29.38;24.60;;;;;;;;;;2082081;28;20275;-51
2021/08/30 03:11:48;;;;;;;29.45;22.85;;;;;;;;;;2082316;28;20641;-54
2021/08/30 03:12:51;;;;;;;27.77;23.70;;;;;;;;;;2081062;28;20181;-54
2021/08/30 03:13:52;;;;;;;30.88;23.95;;;;;;;;;;2082537;28;20889;-51
2021/08/30 03:14:54;;;;;;;27.98;24.38;;;;;;;;;;2081340;28;20180;-55
2021/08/30 03:15:55;;;;;;;28.45;23.48;;;;;;;;;;2082358;28;20546;-51
2021/08/30 03:16:58;;;;;;;30.02;25.52;;;;;;;;;;2075764;28;20188;-52
2021/08/30 03:18:01;;;;;;;28.85;24.60;;;;;;;;;;2077792;28;20181;-55
2021/08/30 03:19:02;;;;;;;28.10;22.58;;;;;;;;;;2081896;28;20628;-51
2021/08/30 03:20:04;;;;;;;32.53;24.58;;;;;;;;;;2082559;28;20160;-51
2021/08/30 03:21:04;;;;;;;28.75;24.08;;;;;;;;;;2081312;28;20203;-53
2021/08/30 03:22:04;;;;;;;31.83;25.55;;;;;;;;;;2079078;28;20668;-56
2021/08/30 03:23:05;;;;;;;28.50;24.38;;;;;;;;;;2079509;28;20176;-52
2021/08/30 03:24:06;;;;;;;32.58;25.50;;;;;;;;;;2078416;28;20215;-55
2021/08/30 03:25:07;;;;;;;30.20;25.00;;;;;;;;;;2081820;28;20443;-53
2021/08/30 03:26:07;;;;;;;27.98;23.85;;;;;;;;;;2082114;28;20655;-52
2021/08/30 03:27:09;;;;;;;28.88;24.42;;;;;;;;;;2079760;28;20177;-55
2021/08/30 03:28:09;;;;;;;30.13;24.70;;;;;;;;;;2081603;28;20687;-53
2021/08/30 03:29:10;;;;;;;28.35;24.77;;;;;;;;;;2079716;28;20226;-52
2021/08/30 03:30:12;;;;;;;30.52;25.63;;;;;;;;;;2077097;28;20168;-50
2021/08/30 03:31:13;;;;;;;29.65;24.63;;;;;;;;;;2079301;28;20183;-51
2021/08/30 03:32:14;;;;;;;33.35;27.08;;;;;;;;;;2079184;28;20187;-54
2021/08/30 03:33:15;;;;;;;29.38;25.88;;;;;;;;;;2082392;28;20172;-53
2021/08/30 03:34:16;;;;;;;31.83;25.95;;;;;;;;;;2081642;28;20196;-54
2021/08/30 03:35:16;;;;;;;31.40;25.85;;;;;;;;;;2081866;28;20168;-55
2021/08/30 03:36:17;;;;;;;29.45;25.42;;;;;;;;;;2080211;28;20656;-52
2021/08/30 03:37:17;;;;;;;32.85;26.85;;;;;;;;;;2081691;28;20172;-50
2021/08/30 03:38:20;;;;;;;31.20;25.40;;;;;;;;;;2077903;28;20701;-55
2021/08/30 03:39:20;;;;;;;30.77;25.65;;;;;;;;;;2081053;28;20180;-51
2021/08/30 03:40:20;;;;;;;30.42;25.05;;;;;;;;;;2077464;28;20243;-50
2021/08/30 03:41:21;;;;;;;30.55;25.38;;;;;;;;;;2071601;28;20614;-52
2021/08/30 03:42:23;;;;;;;30.00;24.63;;;;;;;;;;2063948;28;20184;-51
2021/08/30 03:43:24;;;;;;;32.20;26.80;;;;;;;;;;2072600;28;20176;-49
2021/08/30 03:44:24;;;;;;;29.80;25.98;;;;;;;;;;2075594;28;20256;-52
2021/08/30 03:45:27;;;;;;;31.15;26.40;;;;;;;;;;2081463;28;20195;-53
2021/08/30 03:46:28;;;;;;;33.45;25.20;;;;;;;;;;2066214;28;20193;-51
2021/08/30 03:47:28;;;;;;;32.50;25.77;;;;;;;;;;2073271;28;20177;-51
2021/08/30 03:48:30;;;;;;;29.50;26.30;;;;;;;;;;2074007;28;20181;-51
2021/08/30 03:49:30;;;;;;;31.50;25.55;;;;;;;;;;2080881;28;20168;-51
2021/08/30 03:50:31;;;;;;;33.13;26.60;;;;;;;;;;2081286;28;20652;-51
2021/08/30 03:51:33;;;;;;;31.98;27.30;;;;;;;;;;2081779;28;20184;-50
2021/08/30 03:52:36;;;;;;;33.78;27.73;;;;;;;;;;2076626;28;20171;-51
2021/08/30 03:53:36;;;;;;;36.03;27.17;;;;;;;;;;2079261;28;20183;-51
2021/08/30 03:54:37;;;;;;;32.67;25.67;;;;;;;;;;2081480;28;20183;-53
2021/08/30 03:55:37;;;;;;;32.72;27.35;;;;;;;;;;2080504;28;20172;-50
2021/08/30 03:56:38;;;;;;;32.22;26.40;;;;;;;;;;2082116;28;20212;-51
2021/08/30 03:57:39;;;;;;;32.58;27.20;;;;;;;;;;2081475;28;20168;-51
2021/08/30 03:58:42;;;;;;;31.15;25.13;;;;;;;;;;2072486;28;20674;-51
2021/08/30 03:59:44;;;;;;;30.02;25.58;;;;;;;;;;2067280;28;20205;-51
2021/08/30 04:00:45;;;;;;;29.83;24.92;;;;;;;;;;2079588;28;20227;-53
2021/08/30 04:01:46;;;;;;;30.80;25.88;;;;;;;;;;2081512;28;20224;-52
2021/08/30 04:02:48;;;;;;;34.03;26.73;;;;;;;;;;2081100;28;20176;-51
2021/08/30 04:03:49;;;;;;;30.85;26.63;;;;;;;;;;2072305;28;20547;-52
2021/08/30 04:04:50;;;;;;;31.95;27.23;;;;;;;;;;2070092;28;20209;-55
2021/08/30 04:05:51;;;;;;;32.05;26.50;;;;;;;;;;2081568;28;20648;-53
2021/08/30 04:06:53;;;;;;;35.63;27.85;;;;;;;;;;2078346;28;20335;-52
2021/08/30 04:07:54;;;;;;;35.05;27.60;;;;;;;;;;2075975;28;20239;-51
2021/08/30 04:08:55;;;;;;;31.40;27.35;;;;;;;;;;2068977;28;20161;-50
2021/08/30 04:09:56;;;;;;;37.03;27.65;;;;;;;;;;2072837;28;20177;-50
2021/08/30 04:11:00;;;;;;;34.67;28.75;;;;;;;;;;2081514;28;20170;-53
2021/08/30 04:12:00;;;;;;;36.40;28.67;;;;;;;;;;2071386;28;20177;-51
2021/08/30 04:13:01;;;;;;;38.47;29.67;;;;;;;;;;2068663;28;20243;-50
2021/08/30 04:14:01;;;;;;;37.30;30.10;;;;;;;;;;2080884;28;20250;-50
2021/08/30 04:15:02;;;;;;;35.35;27.30;;;;;;;;;;2079957;28;20247;-55
2021/08/30 04:16:03;;;;;;;33.58;28.73;;;;;;;;;;2077037;28;20180;-50
2021/08/30 04:17:03;;;;;;;36.88;29.08;;;;;;;;;;2079557;28;20670;-53
2021/08/30 04:18:03;;;;;;;34.83;28.38;;;;;;;;;;2080767;28;20578;-55
2021/08/30 04:19:03;;;;;;;37.17;29.70;;;;;;;;;;2072674;28;20161;-51
2021/08/30 04:20:04;;;;;;;38.92;30.17;;;;;;;;;;2071611;28;20195;-55
2021/08/30 04:21:04;;;;;;;36.03;29.50;;;;;;;;;;2077942;28;20195;-54
2021/08/30 04:22:04;;;;;;;39.10;31.55;;;;;;;;;;2078667;28;20589;-51
2021/08/30 04:23:05;;;;;;;36.30;28.70;;;;;;;;;;2079486;28;20172;-52
2021/08/30 04:24:05;;;;;;;36.92;28.35;;;;;;;;;;2081001;28;20198;-53
2021/08/30 04:25:06;;;;;;;35.65;29.17;;;;;;;;;;2077022;28;20165;-54
2021/08/30 04:26:06;;;;;;;35.40;29.23;;;;;;;;;;2078351;28;20176;-52
2021/08/30 04:27:06;;;;;;;37.67;28.85;;;;;;;;;;2081461;28;20239;-54
2021/08/30 04:28:06;;;;;;;34.88;29.13;;;;;;;;;;2080249;28;20251;-51
2021/08/30 04:29:07;;;;;;;34.85;28.95;;;;;;;;;;2073032;28;20168;-51
2021/08/30 04:30:08;;;;;;;33.47;28.92;;;;;;;;;;2071071;28;20527;-52
2021/08/30 04:31:08;;;;;;;33.78;28.30;;;;;;;;;;2080836;28;20784;-50
2021/08/30 04:32:10;;;;;;;36.28;31.65;;;;;;;;;;2081776;28;20168;-51
2021/08/30 04:33:12;;;;;;;35.47;29.42;;;;;;;;;;2072826;28;20183;-48
2021/08/30 04:34:13;;;;;;;33.58;28.60;;;;;;;;;;2070849;28;20191;-54
2021/08/30 04:35:14;;;;;;;36.80;29.92;;;;;;;;;;2076608;28;20649;-55
2021/08/30 04:36:14;;;;;;;35.92;29.08;;;;;;;;;;2070235;28;20180;-51
2021/08/30 04:37:16;;;;;;;37.13;28.70;;;;;;;;;;2072166;28;20207;-50
2021/08/30 04:38:16;;;;;;;34.42;29.77;;;;;;;;;;2080919;28;20160;-54
2021/08/30 04:39:17;;;;;;;36.72;28.63;;;;;;;;;;2080205;28;20194;-55
2021/08/30 04:40:17;;;;;;;33.00;29.48;;;;;;;;;;2079555;28;20689;-55
2021/08/30 04:41:17;;;;;;;38.65;30.08;;;;;;;;;;2078659;28;20258;-53
2021/08/30 04:42:18;;;;;;;33.90;28.27;;;;;;;;;;2081096;28;20226;-51
2021/08/30 04:43:18;;;;;;;38.72;31.15;;;;;;;;;;2076464;28;20169;-50
2021/08/30 04:44:18;;;;;;;33.72;29.38;;;;;;;;;;2078909;28;20255;-50
2021/08/30 04:45:19;;;;;;;41.80;31.50;;;;;;;;;;2074220;28;20173;-55
2021/08/30 04:46:19;;;;;;;35.22;29.60;;;;;;;;;;2077737;28;20194;-49
2021/08/30 04:47:20;;;;;;;37.83;31.25;;;;;;;;;;2070343;28;20231;-54
2021/08/30 04:48:20;;;;;;;39.10;32.13;;;;;;;;;;2057193;28;20174;-50
2021/08/30 04:49:20;;;;;;;34.10;29.60;;;;;;;;;;2064986;28;20185;-49
2021/08/30 04:50:20;;;;;;;36.20;29.63;;;;;;;;;;2079706;28;20282;-51
2021/08/30 04:51:21;;;;;;;39.50;31.45;;;;;;;;;;2077922;28;20208;-50
2021/08/30 04:52:21;;;;;;;39.08;31.60;;;;;;;;;;2079806;28;20176;-53
2021/08/30 04:53:21;;;;;;;39.35;31.90;;;;;;;;;;2077175;28;20260;-51
2021/08/30 04:54:21;;;;;;;39.63;32.33;;;;;;;;;;2080127;28;20637;-52
2021/08/30 04:55:22;;;;;;;37.35;30.88;;;;;;;;;;2074797;28;20641;-50
2021/08/30 04:56:22;;;;;;;39.08;31.33;;;;;;;;;;2075454;28;20250;-50
2021/08/30 04:57:22;;;;;;;39.83;32.67;;;;;;;;;;2098470;22;20224;-57
2021/08/30 04:58:22;;;;;;;39.10;31.35;;;;;;;;;;2076867;28;20177;-54
2021/08/30 04:59:22;;;;;;;44.13;33.55;;;;;;;;;;2079262;28;20256;-52
2021/08/30 05:00:23;;;;;;;39.15;31.20;;;;;;;;;;2080521;28;20593;-54
2021/08/30 05:01:25;;;;;;;41.78;33.03;;;;;;;;;;2080817;28;20208;-52
2021/08/30 05:02:25;;;;;;;43.55;33.13;;;;;;;;;;2067318;28;20161;-52
2021/08/30 05:03:25;;;;;;;41.30;33.22;;;;;;;;;;2073726;28;20188;-52
2021/08/30 05:04:26;;;;;;;40.20;32.60;;;;;;;;;;2088286;28;20640;-52
2021/08/30 05:05:26;;;;;;;43.45;33.13;;;;;;;;;;2072580;28;20177;-52
2021/08/30 05:06:26;;;;;;;38.47;31.52;;;;;;;;;;2076011;28;20275;-54
2021/08/30 05:07:27;;;;;;;40.60;32.53;;;;;;;;;;2078256;28;20184;-53
2021/08/30 05:08:27;;;;;;;48.90;35.40;;;;;;;;;;2083839;28;20183;-54
2021/08/30 05:09:27;;;;;;;42.30;33.28;;;;;;;;;;2085040;28;20192;-55
2021/08/30 05:10:28;;;;;;;40.58;33.35;;;;;;;;;;2084604;28;20167;-56
2021/08/30 05:11:28;;;;;;;39.80;33.22;;;;;;;;;;2089420;28;20190;-50
2021/08/30 05:12:28;;;;;;;44.10;33.50;;;;;;;;;;2082804;28;20183;-54
2021/08/30 05:13:29;;;;;;;45.72;35.47;;;;;;;;;;2082265;28;20202;-51
2021/08/30 05:14:29;;;;;;;42.20;33.60;;;;;;;;;;2080329;28;20183;-47
2021/08/30 05:15:29;;;;;;;42.33;33.80;;;;;;;;;;2083056;28;20168;-49
2021/08/30 05:16:30;;;;;;;44.20;33.10;;;;;;;;;;2081822;28;20211;-48
2021/08/30 05:17:30;;;;;;;57.50;40.88;;;;;;;;;;2074657;28;20189;-49
2021/08/30 05:18:30;;;;;;;44.22;35.42;;;;;;;;;;2070418;28;20188;-51
2021/08/30 05:19:30;;;;;;;43.25;33.53;;;;;;;;;;2081096;28;20730;-53
2021/08/30 05:20:31;;;;;;;39.97;31.92;;;;;;;;;;2080619;28;20172;-53
2021/08/30 05:21:31;;;;;;;43.22;33.40;;;;;;;;;;2064777;28;20221;-47
2021/08/30 05:22:31;;;;;;;44.05;33.03;;;;;;;;;;2063298;28;20688;-50
2021/08/30 05:23:32;;;;;;;40.42;32.13;;;;;;;;;;2079270;28;20176;-52
2021/08/30 05:24:32;;;;;;;42.05;32.97;;;;;;;;;;2076069;28;20200;-51
2021/08/30 05:25:32;;;;;;;45.58;33.83;;;;;;;;;;2089718;28;20672;-50
2021/08/30 05:26:34;;;;;;;42.28;32.85;;;;;;;;;;2080674;28;20222;-51
2021/08/30 05:27:34;;;;;;;42.53;34.22;;;;;;;;;;2068034;28;20205;-55
2021/08/30 05:28:34;;;;;;;41.88;33.50;;;;;;;;;;2075823;28;20165;-51
2021/08/30 05:29:35;;;;;;;38.15;31.30;;;;;;;;;;2080173;28;20285;-51
2021/08/30 05:30:35;;;;;;;43.15;33.50;;;;;;;;;;2073127;28;20175;-52
2021/08/30 05:31:35;;;;;;;45.60;34.38;;;;;;;;;;2082639;28;20590;-52
2021/08/30 05:32:36;;;;;;;42.95;33.22;;;;;;;;;;2081564;28;20703;-55
2021/08/30 05:33:37;;;;;;;39.25;31.33;;;;;;;;;;2083434;28;20179;-54
2021/08/30 05:34:37;;;;;;;43.90;32.45;;;;;;;;;;2087369;28;20168;-54
2021/08/30 05:35:37;;;;;;;38.83;31.85;;;;;;;;;;2089999;28;20667;-52
2021/08/30 05:36:37;;;;;;;44.53;32.72;;;;;;;;;;2087217;28;20191;-54
2021/08/30 05:37:38;;;;;;;41.85;30.65;;;;;;;;;;2090025;28;20191;-50
2021/08/30 05:38:38;;;;;;;44.70;32.75;;;;;;;;;;2084111;28;20183;-51
2021/08/30 05:39:38;;;;;;;37.97;31.15;;;;;;;;;;2080994;28;20168;-51
2021/08/30 05:40:38;;;;;;;39.58;31.30;;;;;;;;;;2085853;28;20187;-52
2021/08/30 05:41:39;;;;;;;41.17;31.65;;;;;;;;;;2067826;28;20224;-56
2021/08/30 05:42:40;;;;;;;37.83;30.30;;;;;;;;;;2075087;28;20171;-52
2021/08/30 05:43:40;;;;;;;37.72;31.70;;;;;;;;;;2080683;28;20187;-52
2021/08/30 05:44:40;;;;;;;37.08;30.92;;;;;;;;;;2072015;28;20195;-53
2021/08/30 05:45:40;;;;;;;36.85;29.02;;;;;;;;;;2073436;28;20196;-54
2021/08/30 05:46:41;;;;;;;34.08;29.80;;;;;;;;;;2079186;28;20172;-52
2021/08/30 05:47:42;;;;;;;34.58;30.55;;;;;;;;;;2064731;28;20197;-52
2021/08/30 05:48:43;;;;;;;36.40;29.27;;;;;;;;;;2073435;28;20181;-52
2021/08/30 05:49:43;;;;;;;36.67;28.83;;;;;;;;;;2071037;28;20173;-53
2021/08/30 05:50:43;;;;;;;32.92;27.63;;;;;;;;;;2071688;28;20238;-52
2021/08/30 05:51:44;;;;;;;33.80;27.73;;;;;;;;;;2082017;28;20179;-52
2021/08/30 05:52:44;;;;;;;32.58;26.80;;;;;;;;;;2081955;28;20176;-55
2021/08/30 05:53:44;;;;;;;39.65;32.78;;;;;;;;;;2082891;28;20334;-53
2021/08/30 05:54:45;;;;;;;36.60;29.17;;;;;;;;;;2073740;28;20185;-54
2021/08/30 05:55:45;;;;;;;34.67;28.60;;;;;;;;;;2073579;28;20169;-57
2021/08/30 05:56:45;;;;;;;34.08;28.73;;;;;;;;;;2082237;28;20664;-52
2021/08/30 05:57:45;;;;;;;34.53;28.40;;;;;;;;;;2082121;28;20180;-51
2021/08/30 05:58:46;;;;;;;35.83;28.17;;;;;;;;;;2082633;28;20222;-55